メインページ
METAR-TAF:

METAR-TAF

空港 :

エルサルバドル国際空港

エルサルバドル, エルサルバドル

緯度: 13-26N, 経度: 089-03W, 海抜: 25m

現時点の気象観測

当レポートは7分前の21:18(UTC)に作成
北西の風 4kt、西/南西から北/北東の間で変化する
気温 30°C
湿度 66%
気圧 1011 hPa
視程10km以上
高度2300ftの雲はほとんどない
高度3500ftの雲は散在している
高度3700ftの雲は散在している, 積乱雲.

METAR: MSLP 162118Z 31004KT 250V020 9999 FEW023 SCT035 SCT037CB 30/23 Q1011 NOSIG CB N/NE/NW

時間: 15:25 (21:25 UTC)

予報

当レポートは6時間0分前の15:25(UTC)に作成
予報は16日の 18時(UTC)から 17日の 18時(UTC)まで有効
南西の風 10kt
視程10km以上
高度2700ftの雲は散在している
高度3700ftの雲はほとんどない, 積乱雲.
16日の 21時(UTC)から 16日の 24時(UTC)まで一時的に
視程: 7000m
激しい雷雨, 雨
17日の 0000時(UTC)から
北/北西の風 4kt
視程10km以上
高度2700ftの雲は散在している
高度3700ftの雲は散在している, 積乱雲.
17日の 01時(UTC)から 17日の 05時(UTC)まで一時的に
北東の風 15kt、最大30ktの突風を伴う
視程: 3000m
高度2300ftの千切れ雲あり
高度3700ftの雲は散在している, 積乱雲.
高度5000ftの千切れ雲あり
激しい雷雨, 大雨
17日の 0500時(UTC)から
北/北東の風 6kt
視程10km以上
高度2300ftの雲はほとんどない
高度7000ftの雲は散在している

TAF: MSLP 161525Z 1618/1718 23010KT 9999 SCT027 FEW037CB TX32/1619Z TN23/1709Z TEMPO 1621/1624 7000 TSRA FM170000 33004KT 9999 SCT027 SCT037CB TEMPO 1701/1705 05015G30KT 3000 +TSRA BKN023 SCT037CB BKN050 FM170500 03006KT 9999 FEW023 SCT070

4,000以上の空港の気象観測と天気予報(METAR報とTAF報)

利用可能な観測所は地図上に黄色い丸と赤い丸で示す。

丸の上にカーソルを重ねると観測所名を参照できる。

次にクリックすると気象観測と天気予報を参照できる。

マップの切り替え:黒色「×」印の緑ボタンをクリックして拡大、「-」印の緑ボタンをクリックして縮小、緑色の三角印をクリックして隣りの地図に切り替え


METAR-TAF: